createdAt,value
2017-10-01T00:04:12.647Z,99.90
2017-10-01T00:09:15.856Z,99.90
2017-10-01T00:14:19.057Z,99.90
2017-10-01T00:19:22.251Z,99.90
2017-10-01T00:24:26.507Z,99.90
2017-10-01T00:29:29.798Z,99.90
2017-10-01T00:34:33.014Z,99.90
2017-10-01T00:39:37.053Z,99.90
2017-10-01T00:44:40.272Z,99.90
2017-10-01T00:49:43.471Z,99.90
2017-10-01T00:54:46.687Z,99.90
2017-10-01T00:59:49.844Z,99.90
2017-10-01T01:04:53.224Z,99.90
2017-10-01T01:09:56.427Z,99.90
2017-10-01T01:15:00.409Z,99.90
2017-10-01T01:20:03.594Z,99.90
2017-10-01T01:25:06.778Z,99.90
2017-10-01T01:30:10.730Z,99.90
2017-10-01T01:35:13.938Z,99.90
2017-10-01T01:40:17.118Z,99.90
2017-10-01T01:45:20.312Z,99.90
2017-10-01T01:50:24.277Z,99.90
2017-10-01T01:55:27.477Z,99.90
2017-10-01T02:00:30.687Z,99.90
2017-10-01T02:05:33.909Z,99.90
2017-10-01T02:10:37.081Z,99.90
2017-10-01T02:15:40.456Z,99.90
2017-10-01T02:20:43.662Z,99.90
2017-10-01T02:25:46.842Z,99.90
2017-10-01T02:30:50.017Z,99.90
2017-10-01T02:35:53.437Z,99.90
2017-10-01T02:40:56.618Z,99.90
2017-10-01T02:46:00.559Z,99.90
2017-10-01T02:51:03.732Z,99.90
2017-10-01T02:56:06.958Z,99.90
2017-10-01T03:01:10.221Z,99.90
2017-10-01T03:06:13.377Z,99.90
2017-10-01T03:11:16.636Z,99.90
2017-10-01T03:16:19.801Z,99.90
2017-10-01T03:21:22.989Z,99.90
2017-10-01T03:26:26.171Z,99.90
2017-10-01T03:31:29.344Z,99.90
2017-10-01T03:36:32.534Z,99.90
2017-10-01T03:41:35.775Z,99.90
2017-10-01T03:46:38.950Z,99.90
2017-10-01T03:51:42.144Z,99.90
2017-10-01T03:56:45.294Z,99.90
2017-10-01T04:01:48.480Z,99.90
2017-10-01T04:06:51.669Z,99.90
2017-10-01T04:11:54.867Z,99.90
2017-10-01T04:16:58.076Z,99.90
2017-10-01T04:22:01.257Z,99.90
2017-10-01T04:27:05.202Z,99.90
2017-10-01T04:32:08.468Z,99.90
2017-10-01T04:37:11.638Z,99.90
2017-10-01T04:42:14.825Z,99.90
2017-10-01T04:47:18.010Z,99.90
2017-10-01T04:52:21.213Z,99.90
2017-10-01T04:57:25.182Z,99.90
2017-10-01T05:02:28.404Z,99.90
2017-10-01T05:07:31.611Z,99.90
2017-10-01T05:12:34.796Z,99.90
2017-10-01T05:17:37.977Z,99.90
2017-10-01T05:22:41.178Z,99.90
2017-10-01T05:27:44.556Z,99.90
2017-10-01T05:32:47.849Z,99.90
2017-10-01T05:37:51.042Z,99.90
2017-10-01T05:42:54.222Z,99.90
2017-10-01T05:47:57.402Z,99.90
2017-10-01T05:53:01.362Z,99.90
2017-10-01T05:58:04.656Z,99.90
2017-10-01T06:03:07.849Z,99.90
2017-10-01T06:08:11.050Z,99.90
2017-10-01T06:13:15.000Z,99.90
2017-10-01T06:18:18.306Z,99.90
2017-10-01T06:23:21.502Z,99.90
2017-10-01T06:28:24.692Z,99.90
2017-10-01T06:33:28.641Z,99.90
2017-10-01T06:38:31.881Z,99.90
2017-10-01T06:43:35.069Z,99.90
2017-10-01T06:48:38.412Z,99.90
2017-10-01T06:53:41.593Z,99.90
2017-10-01T06:58:44.829Z,99.90
2017-10-01T07:03:48.076Z,99.90
2017-10-01T07:08:51.266Z,99.90
2017-10-01T07:13:55.272Z,99.90
2017-10-01T07:18:58.486Z,99.90
2017-10-01T07:24:02.542Z,94.60
2017-10-01T07:29:05.755Z,94.40
2017-10-01T07:34:08.961Z,94.80
2017-10-01T07:39:12.204Z,97.20
2017-10-01T07:44:15.402Z,98.10
2017-10-01T07:49:18.618Z,99.00
2017-10-01T07:54:21.838Z,99.30
2017-10-01T07:59:25.025Z,98.60
2017-10-01T08:04:29.078Z,96.20
2017-10-01T08:09:32.255Z,96.30
2017-10-01T08:14:35.674Z,90.00
2017-10-01T08:19:39.048Z,91.30
2017-10-01T08:24:42.262Z,86.80
2017-10-01T08:29:45.905Z,79.70
2017-10-01T08:34:49.178Z,79.50
2017-10-01T08:39:52.442Z,81.60
2017-10-01T08:44:55.626Z,78.00
2017-10-01T08:49:58.822Z,80.50
2017-10-01T08:55:02.103Z,79.20
2017-10-01T09:00:05.289Z,82.90
2017-10-01T09:05:09.317Z,84.00
2017-10-01T09:10:13.318Z,81.90
2017-10-01T09:15:16.502Z,82.00
2017-10-01T09:20:19.684Z,81.10
2017-10-01T09:25:22.905Z,81.80
2017-10-01T09:30:26.102Z,82.50
2017-10-01T09:35:29.301Z,82.10
2017-10-01T09:40:37.178Z,82.80
2017-10-01T09:45:40.574Z,83.90
2017-10-01T09:50:43.769Z,83.70
2017-10-01T09:55:47.033Z,84.20
2017-10-01T10:00:50.502Z,81.80
2017-10-01T10:05:53.727Z,81.50
2017-10-01T10:10:57.712Z,81.80
2017-10-01T10:16:00.938Z,81.80
2017-10-01T10:21:04.425Z,81.20
2017-10-01T10:26:07.640Z,82.50
2017-10-01T10:31:10.850Z,82.50
2017-10-01T10:36:14.271Z,82.90
2017-10-01T10:41:17.481Z,82.50
2017-10-01T10:46:20.666Z,83.70
2017-10-01T10:51:23.853Z,82.00
2017-10-01T10:56:27.123Z,81.10
2017-10-01T11:01:30.436Z,80.20
2017-10-01T11:06:34.465Z,78.00
2017-10-01T11:11:38.469Z,79.90
2017-10-01T11:16:42.466Z,80.50
2017-10-01T11:21:45.863Z,80.50
2017-10-01T11:26:49.074Z,79.70
2017-10-01T11:31:52.259Z,81.10
2017-10-01T11:36:55.478Z,81.00
2017-10-01T11:41:58.905Z,79.20
2017-10-01T11:47:02.204Z,78.50
2017-10-01T11:52:05.514Z,79.50
2017-10-01T11:57:08.877Z,79.60
2017-10-01T12:02:12.863Z,78.50
2017-10-01T12:07:16.086Z,78.40
2017-10-01T12:12:20.073Z,77.70
2017-10-01T12:17:23.283Z,78.10
2017-10-01T12:22:26.483Z,77.90
2017-10-01T12:27:29.850Z,77.50
2017-10-01T12:32:33.813Z,76.30
2017-10-01T12:37:38.514Z,76.30
2017-10-01T12:42:42.543Z,74.50
2017-10-01T12:47:46.622Z,74.00
2017-10-01T12:52:49.854Z,74.00
2017-10-01T12:57:53.077Z,74.50
2017-10-01T13:02:57.048Z,75.10
2017-10-01T13:08:00.401Z,75.00
2017-10-01T13:13:03.710Z,77.80
2017-10-01T13:18:06.904Z,75.10
2017-10-01T13:23:10.209Z,76.10
2017-10-01T13:28:13.679Z,75.70
2017-10-01T13:33:16.939Z,75.30
2017-10-01T13:38:20.248Z,74.50
2017-10-01T13:43:23.446Z,74.00
2017-10-01T13:48:26.916Z,74.50
2017-10-01T13:53:30.137Z,74.90
2017-10-01T13:58:34.069Z,75.40
2017-10-01T14:03:41.234Z,70.60
2017-10-01T14:08:44.967Z,69.50
2017-10-01T14:13:48.165Z,69.00
2017-10-01T14:18:51.401Z,71.30
2017-10-01T14:23:54.905Z,70.90
2017-10-01T14:28:58.170Z,70.00
2017-10-01T14:34:01.523Z,68.60
2017-10-01T14:39:04.742Z,66.70
2017-10-01T14:44:08.678Z,65.60
2017-10-01T14:49:11.955Z,67.90
2017-10-01T14:54:15.184Z,66.50
2017-10-01T14:59:18.464Z,67.50
2017-10-01T15:04:21.704Z,66.40
2017-10-01T15:09:24.986Z,66.50
2017-10-01T15:14:28.246Z,66.20
2017-10-01T15:19:31.465Z,65.00
2017-10-01T15:24:35.499Z,66.10
2017-10-01T15:29:38.763Z,66.10
2017-10-01T15:34:41.981Z,65.50
2017-10-01T15:39:45.228Z,67.10
2017-10-01T15:44:48.443Z,67.60
2017-10-01T15:49:51.658Z,67.90
2017-10-01T15:54:54.889Z,68.30
2017-10-01T15:59:58.130Z,69.10
2017-10-01T16:05:01.341Z,67.90
2017-10-01T16:10:05.421Z,70.90
2017-10-01T16:15:08.675Z,70.30
2017-10-01T16:20:12.656Z,68.30
2017-10-01T16:25:15.850Z,68.20
2017-10-01T16:30:19.087Z,68.90
2017-10-01T16:35:22.357Z,69.60
2017-10-01T16:40:25.582Z,70.10
2017-10-01T16:45:29.342Z,73.00
2017-10-01T16:50:32.711Z,74.60
2017-10-01T16:55:36.072Z,74.70
2017-10-01T17:00:39.266Z,75.20
2017-10-01T17:05:42.509Z,76.60
2017-10-01T17:10:45.774Z,77.10
2017-10-01T17:15:49.000Z,79.40
2017-10-01T17:20:52.192Z,84.40
2017-10-01T17:25:55.406Z,87.90
2017-10-01T17:30:59.750Z,89.10
2017-10-01T17:36:03.792Z,88.20
2017-10-01T17:41:07.043Z,88.20
2017-10-01T17:46:10.280Z,88.40
2017-10-01T17:51:13.772Z,89.50
2017-10-01T17:56:17.013Z,89.30
2017-10-01T18:01:21.071Z,91.50
2017-10-01T18:06:24.267Z,91.50
2017-10-01T18:11:27.514Z,90.40
2017-10-01T18:16:30.721Z,90.60
2017-10-01T18:21:33.938Z,92.60
2017-10-01T18:26:37.178Z,92.60
2017-10-01T18:31:41.296Z,93.30
2017-10-01T18:36:45.425Z,93.30
2017-10-01T18:41:49.412Z,93.90
2017-10-01T18:46:52.694Z,93.90
2017-10-01T18:51:55.915Z,95.50
2017-10-01T18:56:59.126Z,94.30
2017-10-01T19:02:02.416Z,95.10
2017-10-01T19:07:07.140Z,95.90
2017-10-01T19:12:12.370Z,97.50
2017-10-01T19:17:15.598Z,97.40
2017-10-01T19:22:19.722Z,97.90
2017-10-01T19:27:23.675Z,98.10
2017-10-01T19:32:27.017Z,98.10
2017-10-01T19:37:30.310Z,98.10
2017-10-01T19:42:34.206Z,97.90
2017-10-01T19:47:37.475Z,98.70
2017-10-01T19:52:43.116Z,98.00
2017-10-01T19:57:46.335Z,97.00
2017-10-01T20:02:49.571Z,96.90
2017-10-01T20:07:53.557Z,96.50
2017-10-01T20:12:56.776Z,96.50
2017-10-01T20:17:59.993Z,97.70
2017-10-01T20:23:03.201Z,97.00
2017-10-01T20:28:06.496Z,97.50
2017-10-01T20:33:09.701Z,98.10
2017-10-01T20:38:12.905Z,99.00
2017-10-01T20:43:16.121Z,98.70
2017-10-01T20:48:19.318Z,98.60
2017-10-01T20:53:22.536Z,99.10
2017-10-01T20:58:25.706Z,99.90
2017-10-01T21:03:28.958Z,99.00
2017-10-01T21:08:32.173Z,98.70
2017-10-01T21:13:35.382Z,99.40
2017-10-01T21:18:39.370Z,99.90
2017-10-01T21:23:42.567Z,99.90
2017-10-01T21:28:45.772Z,99.90
2017-10-01T21:33:48.962Z,99.90
2017-10-01T21:38:52.181Z,99.90
2017-10-01T21:43:55.390Z,99.90
2017-10-01T21:48:58.719Z,99.90
2017-10-01T21:54:01.909Z,99.90
2017-10-01T21:59:05.208Z,99.90
2017-10-01T22:04:08.401Z,99.90
2017-10-01T22:09:11.728Z,99.90
2017-10-01T22:14:14.936Z,99.90
2017-10-01T22:19:18.256Z,99.90
2017-10-01T22:24:21.563Z,99.90
2017-10-01T22:29:24.757Z,99.90
2017-10-01T22:34:28.007Z,99.90
2017-10-01T22:39:31.975Z,99.90
2017-10-01T22:44:35.190Z,99.90
2017-10-01T22:49:38.390Z,99.90
2017-10-01T22:54:41.590Z,99.90
2017-10-01T22:59:44.793Z,99.90
2017-10-01T23:04:48.183Z,99.90
2017-10-01T23:09:51.375Z,99.90
2017-10-01T23:14:55.462Z,99.90
2017-10-01T23:19:58.681Z,99.90
2017-10-01T23:25:01.875Z,99.90
2017-10-01T23:30:05.067Z,99.90
2017-10-01T23:35:08.271Z,99.90
2017-10-01T23:40:11.471Z,99.90
2017-10-01T23:45:14.742Z,99.90
2017-10-01T23:50:18.734Z,99.90
2017-10-01T23:55:21.938Z,99.90
